Latest Weather Observations for Mandurah

IDW60801

Issued at 11:13 pm WST Wednesday 8 July 2020 (issued every 10 minutes, with the page automatically refreshed every 10 minutes)

About weather observations | Map of weather stations | Latest weather observations for WA | Other Formats
Station Details ID: 009977 Name: MANDURAH Lat: -32.52 Lon: 115.71 Height: 3.0 m
Data from the previous 72 hours. | See also: Recent months at Mandurah
Date/Time
WST
Temp
°C
App
Temp
°C
Dew
Point
°C
Rel
Hum
%
Delta-T
°C
Wind Press
QNH
hPa
Press
MSL
hPa
Rain since
9am
mm
Dir  Spd
km/h
Gust
km/h
Spd
kts
Gust
kts
08/11:00pm 11.8 9.2 9.5 86 1.2 SSE 13 19 7 10 1024.9 1024.9 0.0
08/10:30pm 12.0 9.6 10.2 89 0.9 SSE 13 22 7 12 1024.7 1024.7 0.0
08/10:00pm 12.3 9.9 10.2 87 1.1 SSE 13 20 7 11 1024.7 1024.7 0.0
08/09:30pm 12.6 10.6 10.1 85 1.3 SSE 11 20 6 11 1024.6 1024.6 0.0
08/09:00pm 12.9 10.8 9.9 82 1.5 SSE 11 17 6 9 1024.3 1024.3 0.0
08/08:30pm 13.5 11.4 9.9 79 1.9 SSE 11 17 6 9 1024.1 1024.1 0.0
08/08:00pm 14.1 12.0 9.9 76 2.2 S 11 19 6 10 1024.0 1024.0 0.0
08/07:30pm 14.5 12.0 9.7 73 2.5 S 13 20 7 11 1023.7 1023.7 0.0
08/07:00pm 13.9 12.9 8.7 71 2.6 S 4 6 2 3 1023.5 1023.5 0.0
08/06:30pm 13.8 12.7 8.4 70 2.7 SSW 4 6 2 3 1023.4 1023.4 0.0
08/06:00pm 14.2 13.1 8.6 69 2.8 S 4 6 2 3 1023.2 1023.2 0.0
08/05:30pm 14.5 13.1 8.7 68 2.9 SSW 6 9 3 5 1023.2 1023.2 0.0
08/05:00pm 14.9 13.1 7.9 63 3.5 SSW 7 11 4 6 1023.1 1023.1 0.0
08/04:30pm 15.3 12.5 7.1 58 4.0 SSW 11 17 6 9 1023.1 1023.1 0.0
08/04:00pm 15.8 12.7 5.7 51 4.8 S 11 19 6 10 1022.8 1022.8 0.0
08/03:30pm 16.3 13.1 5.3 48 5.3 SSW 11 19 6 10 1022.7 1022.7 0.0
08/03:00pm 16.1 14.3 7.8 58 4.1 SSE 7 13 4 7 1022.7 1022.7 0.0
08/02:30pm 15.7 13.6 8.4 62 3.7 SSE 9 17 5 9 1022.7 1022.7 0.0
08/02:00pm 15.7 14.0 10.0 69 3.0 SSE 9 15 5 8 1023.0 1023.0 0.0
08/01:30pm 15.4 14.4 10.2 71 2.7 SSE 6 9 3 5 1023.3 1023.3 0.0
08/01:00pm 14.6 13.7 11.2 80 1.8 SSE 7 9 4 5 1023.8 1023.8 0.0
08/12:30pm 16.0 14.6 9.4 65 3.4 SSE 7 13 4 7 1023.8 1023.8 0.0
08/12:00pm 15.3 14.6 9.9 70 2.8 ESE 4 7 2 4 1024.1 1024.1 0.0
08/11:30am 14.7 13.4 11.1 79 1.9 ESE 9 17 5 9 1024.6 1024.6 0.0
08/11:00am 14.8 14.0 11.0 78 2.0 SE 6 13 3 7 1024.9 1024.9 0.0
08/10:30am 14.0 13.0 10.4 79 1.9 S 6 9 3 5 1025.0 1025.0 0.0
08/10:00am 13.8 12.3 10.4 80 1.8 SSE 9 13 5 7 1024.8 1024.8 0.0
08/09:30am 14.1 13.0 10.1 77 2.1 S 6 9 3 5 1024.7 1024.7 0.0
08/09:00am 13.3 12.4 9.4 77 2.0 E 4 13 2 7 1024.4 1024.4 2.2
08/08:30am 11.6 11.0 8.8 83 1.4 NE 2 4 1 2 1024.0 1024.0 2.2
08/08:00am 11.7 11.0 8.7 82 1.5 NE 2 4 1 2 1023.7 1023.7 2.2
08/07:30am 12.3 10.8 9.0 80 1.7 NE 7 9 4 5 1023.4 1023.4 2.2
08/07:00am 11.4 10.4 8.8 84 1.3 ESE 4 6 2 3 1023.3 1023.3 2.2
08/06:30am 10.8 10.5 8.6 86 1.1 CALM 0 0 0 0 1022.9 1022.9 2.2
08/06:00am 10.9 10.6 8.5 85 1.2 CALM 0 0 0 0 1022.6 1022.6 2.2
08/05:30am 11.5 10.9 8.9 84 1.3 ESE 2 6 1 3 1022.7 1022.7 2.2
08/05:00am 12.2 11.0 9.6 84 1.3 SE 6 9 3 5 1022.5 1022.5 2.2
08/04:30am 12.3 11.0 9.3 82 1.5 SE 6 7 3 4 1022.4 1022.4 2.2
08/04:00am 12.5 11.3 9.5 82 1.5 SE 6 9 3 5 1022.4 1022.4 2.2
08/03:30am 12.9 11.7 9.5 80 1.7 S 6 7 3 4 1022.3 1022.3 2.2
08/03:00am 13.2 12.3 9.1 76 2.1 S 4 6 2 3 1022.2 1022.2 2.2
08/02:30am 13.8 12.2 8.2 69 2.8 S 6 9 3 5 1022.0 1022.0 2.2
08/02:00am 14.0 12.4 8.8 71 2.6 S 7 9 4 5 1022.1 1022.1 2.2
08/01:30am 13.9 12.4 8.3 69 2.8 S 6 7 3 4 1022.0 1022.0 2.2
08/01:00am 13.8 12.0 7.8 67 2.9 S 7 11 4 6 1021.9 1021.9 2.2
08/12:30am 13.4 11.2 8.0 70 2.7 SSW 9 13 5 7 1022.0 1022.0 2.2
08/12:00am 14.1 13.2 11.3 83 1.5 S 7 11 4 6 1022.0 1022.0 2.2
 
Date/Time
WST
Temp
°C
App
Temp
°C
Dew
Point
°C
Rel
Hum
%
Delta-T
°C
Wind Press
QNH
hPa
Press
MSL
hPa
Rain since
9am
mm
Dir  Spd
km/h
Gust
km/h
Spd
kts
Gust
kts
07/11:30pm 13.8 12.4 11.0 83 1.5 SE 9 13 5 7 1021.9 1021.9 2.2
07/11:00pm 13.8 12.3 10.6 81 1.7 S 9 13 5 7 1021.9 1021.9 2.2
07/10:30pm 14.0 12.6 12.2 89 1.0 S 11 22 6 12 1021.8 1021.8 2.2
07/10:00pm 13.9 13.4 12.5 91 0.8 S 7 17 4 9 1022.0 1022.0 2.0
07/09:30pm 14.7 13.2 13.1 90 0.9 WSW 13 28 7 15 1021.8 1021.8 1.6
07/09:00pm 15.5 12.3 13.2 86 1.3 WSW 22 35 12 19 1021.7 1021.7 1.2
07/08:30pm 16.6 12.5 10.0 65 3.5 WNW 22 30 12 16 1021.1 1021.1 0.6
07/08:00pm 16.4 12.4 10.3 67 3.2 WNW 22 30 12 16 1021.1 1021.1 0.6
07/07:30pm 16.6 12.7 10.7 68 3.1 WNW 22 37 12 20 1020.9 1020.9 0.6
07/07:00pm 16.1 12.5 10.6 70 2.9 W 20 32 11 17 1020.9 1020.9 0.6
07/06:30pm 15.9 12.3 11.7 76 2.3 WNW 22 30 12 16 1020.8 1020.8 0.6
07/06:00pm 15.9 12.5 11.3 74 2.5 W 20 30 11 16 1020.9 1020.9 0.6
07/05:30pm 15.4 10.8 11.2 76 2.2 W 26 33 14 18 1020.8 1020.8 0.6
07/05:00pm 15.1 12.6 12.2 83 1.6 W 17 22 9 12 1021.0 1021.0 0.4
07/04:30pm 15.0 11.1 12.0 82 1.6 W 24 37 13 20 1021.2 1021.2 0.4
07/04:00pm 16.2 13.1 12.2 77 2.2 WNW 20 28 11 15 1021.1 1021.1 0.4
07/03:30pm 16.5 11.9 11.0 70 2.9 WNW 26 39 14 21 1021.1 1021.1 0.4
07/03:00pm 16.7 13.5 11.2 70 3.0 WNW 19 24 10 13 1021.1 1021.1 0.4
07/02:30pm 15.9 14.2 11.3 74 2.5 NW 11 17 6 9 1021.2 1021.2 0.4
07/02:00pm 16.1 12.6 10.8 71 2.8 W 20 33 11 18 1021.2 1021.2 0.4
07/01:30pm 16.9 14.0 11.0 68 3.2 W 17 24 9 13 1021.2 1021.2 0.4
07/01:00pm 17.0 14.6 11.3 69 3.1 W 15 19 8 10 1021.4 1021.4 0.4
07/12:30pm 16.0 12.2 11.0 72 2.7 WNW 22 35 12 19 1021.9 1021.9 0.4
07/12:00pm 16.9 13.4 10.3 65 3.5 W 19 26 10 14 1022.2 1022.2 0.4
07/11:30am 16.9 13.6 11.0 68 3.2 WNW 19 26 10 14 1022.5 1022.5 0.4
07/11:00am 15.5 13.2 11.7 78 2.0 WNW 15 28 8 15 1022.7 1022.7 0.4
07/10:30am 16.0 14.7 11.2 73 2.6 SW 9 17 5 9 1022.8 1022.8 0.2
07/10:00am 15.9 14.3 11.5 75 2.4 W 11 20 6 11 1022.6 1022.6 0.2
07/09:30am 15.1 13.2 11.7 80 1.8 WSW 13 22 7 12 1022.6 1022.6 0.2
07/09:00am 14.5 11.0 10.3 76 2.2 WSW 19 32 10 17 1022.4 1022.4 5.4
07/08:30am 14.4 11.3 10.2 76 2.2 W 17 33 9 18 1022.2 1022.2 5.4
07/08:00am 14.5 11.7 10.1 75 2.3 NW 15 19 8 10 1021.7 1021.7 5.4
07/07:30am 13.7 11.5 10.9 83 1.5 W 13 20 7 11 1021.7 1021.7 5.2
07/07:00am 14.7 12.6 11.3 80 1.8 WNW 13 30 7 16 1021.3 1021.3 4.6
07/06:30am 15.1 11.1 10.5 74 2.4 WNW 22 32 12 17 1020.8 1020.8 3.8
07/06:00am 14.6 10.5 10.2 75 2.3 W 22 39 12 21 1020.7 1020.7 3.8
07/05:30am 15.6 12.0 8.4 62 3.6 WSW 17 26 9 14 1020.3 1020.3 3.8
07/05:00am 15.5 11.6 8.5 63 3.5 W 19 26 10 14 1020.2 1020.2 3.8
07/04:30am 15.8 12.3 7.3 57 4.2 WSW 15 24 8 13 1020.0 1020.0 3.8
07/04:00am 15.7 12.3 7.7 59 4.0 WSW 15 24 8 13 1020.1 1020.1 3.8
07/03:30am 15.9 12.1 7.4 57 4.2 WSW 17 26 9 14 1020.1 1020.1 3.8
07/03:00am 15.9 10.8 7.7 58 4.1 W 24 35 13 19 1020.0 1020.0 3.8
07/02:30am 15.8 12.4 9.0 64 3.5 WSW 17 28 9 15 1019.9 1019.9 3.8
07/02:00am 16.1 11.5 8.3 60 3.9 W 22 32 12 17 1019.7 1019.7 3.8
07/01:30am 16.0 11.8 7.5 57 4.2 WSW 19 28 10 15 1019.6 1019.6 3.8
07/01:00am 15.9 12.2 7.9 59 4.0 WSW 17 30 9 16 1019.5 1019.5 3.8
07/12:34am 16.1 10.1 7.1 55 4.5 W 28 48 15 26 1019.6 1019.6 3.8
07/12:30am 16.2 9.9 7.4 56 4.4 W 30 48 16 26 1019.5 1019.5 3.8
07/12:25am 16.2 10.3 7.4 56 4.4 W 28 48 15 26 1019.5 1019.5 3.8
07/12:00am 16.3 10.9 7.8 57 4.3 W 26 37 14 20 1019.5 1019.5 3.8
 
Date/Time
WST
Temp
°C
App
Temp
°C
Dew
Point
°C
Rel
Hum
%
Delta-T
°C
Wind Press
QNH
hPa
Press
MSL
hPa
Rain since
9am
mm
Dir  Spd
km/h
Gust
km/h
Spd
kts
Gust
kts
06/11:30pm 16.1 11.6 8.6 61 3.8 WSW 22 39 12 21 1019.7 1019.7 3.8
06/11:00pm 16.2 11.0 8.9 62 3.7 W 26 37 14 20 1019.6 1019.6 3.8
06/10:30pm 16.3 11.0 8.3 59 4.1 W 26 37 14 20 1019.3 1019.3 3.8
06/10:00pm 16.1 11.2 8.3 60 3.9 W 24 37 13 20 1019.4 1019.4 3.8
06/09:30pm 16.4 10.3 8.1 58 4.2 W 30 43 16 23 1019.2 1019.2 3.8
06/09:00pm 16.6 10.9 9.8 64 3.6 W 30 43 16 23 1019.2 1019.2 3.8
06/08:30pm 16.5 9.9 8.7 60 4.0 WNW 33 43 18 23 1019.1 1019.1 3.8
06/08:04pm 16.5 10.8 9.7 64 3.6 W 30 48 16 26 1018.9 1018.9 3.8
06/08:00pm 16.6 11.4 10.2 66 3.4 W 28 43 15 23 1019.0 1019.0 3.8
06/07:30pm 16.5 10.2 9.7 64 3.6 WNW 33 48 18 26 1018.6 1018.6 3.8
06/07:00pm 16.6 10.5 10.5 67 3.2 WNW 33 46 18 25 1018.4 1018.4 3.8
06/06:30pm 16.2 9.4 9.2 63 3.6 W 35 48 19 26 1018.1 1018.1 3.8
06/06:00pm 16.4 10.6 10.7 69 3.0 W 32 44 17 24 1017.5 1017.5 3.8
06/05:30pm 16.4 9.8 12.6 78 2.1 WNW 39 52 21 28 1017.1 1017.1 3.8
06/05:00pm 15.5 8.7 13.0 85 1.4 WNW 41 54 22 29 1016.6 1016.6 3.8
06/04:47pm 15.7 10.5 13.4 86 1.3 WNW 33 46 18 25 1016.6 1016.6 3.6
06/04:30pm 15.6 8.3 12.9 84 1.5 WNW 43 63 23 34 1016.5 1016.5 3.6
06/04:03pm 15.5 9.6 13.5 88 1.1 WNW 37 61 20 33 1016.2 1016.2 3.4
06/04:00pm 15.7 10.2 13.7 88 1.1 WNW 35 52 19 28 1016.2 1016.2 3.4
06/03:48pm 15.7 9.0 13.4 86 1.3 NW 41 59 22 32 1016.1 1016.1 2.8
06/03:30pm 15.7 7.6 12.1 79 2.0 NW 46 57 25 31 1015.9 1015.9 2.8
06/03:00pm 16.6 9.9 12.4 76 2.3 NW 39 50 21 27 1015.7 1015.7 2.8
06/02:30pm 15.5 8.0 12.1 80 1.9 NW 43 59 23 32 1015.4 1015.4 2.8
06/02:00pm 16.1 11.0 13.0 82 1.7 NW 32 43 17 23 1015.3 1015.3 2.6
06/01:30pm 15.0 7.9 12.3 84 1.5 NW 41 50 22 27 1015.5 1015.5 2.6
06/01:00pm 15.6 8.1 12.7 83 1.6 WNW 44 59 24 32 1015.4 1015.4 2.2
06/12:30pm 15.8 8.1 13.3 85 1.4 NW 46 65 25 35 1015.6 1015.6 1.2
06/12:17pm 16.2 8.6 12.4 78 2.1 NW 44 63 24 34 1015.2 1015.2 0.4
06/12:00pm 17.1 9.2 12.6 75 2.5 NW 46 56 25 30 1015.2 1015.2 0.4
06/11:30am 15.7 7.2 12.1 79 2.0 NW 48 76 26 41 1015.7 1015.7 0.4
06/11:27am 15.9 7.0 11.9 77 2.2 NW 50 76 27 41 1015.8 1015.8 0.2
06/11:24am 17.0 8.5 11.9 72 2.8 NW 48 72 26 39 1015.4 1015.4 0.2
06/11:00am 17.1 12.2 12.6 75 2.5 WNW 30 48 16 26 1015.6 1015.6 0.2
06/10:45am 15.5 6.7 9.4 67 3.1 WNW 46 59 25 32 1015.8 1015.8 0.2
06/10:30am 17.1 8.5 11.6 70 3.0 NW 48 57 26 31 1015.5 1015.5 0.2
06/10:12am 16.4 9.2 12.0 75 2.4 NW 41 63 22 34 1015.6 1015.6 0.2
06/10:00am 16.9 10.1 12.0 73 2.7 NW 39 50 21 27 1015.6 1015.6 0.2
06/09:46am 16.0 8.7 11.4 74 2.5 NW 41 59 22 32 1015.7 1015.7 0.0
06/09:30am 17.7 9.7 10.6 63 3.8 NW 43 54 23 29 1015.4 1015.4 0.0
06/09:00am 17.3 8.2 9.7 61 4.0 NW 48 57 26 31 1015.2 1015.2 16.4
06/08:30am 17.0 8.9 10.1 64 3.6 NW 43 52 23 28 1014.9 1014.9 16.4
06/08:00am 17.0 8.8 9.7 62 3.8 NW 43 57 23 31 1014.6 1014.6 16.4
06/07:35am 16.4 10.5 11.1 71 2.8 NW 33 54 18 29 1014.3 1014.3 16.4
06/07:30am 16.1 10.4 11.7 75 2.4 NW 33 46 18 25 1014.4 1014.4 16.4
06/07:25am 16.2 9.2 11.4 73 2.6 NW 39 57 21 31 1014.4 1014.4 16.4
06/07:00am 16.7 10.5 11.4 71 2.9 NW 35 44 19 24 1014.0 1014.0 16.4
06/06:30am 16.4 10.6 10.9 70 2.9 NW 32 46 17 25 1013.7 1013.7 16.4
06/06:00am 16.3 11.6 11.9 75 2.4 NW 28 35 15 19 1013.7 1013.7 16.4
06/05:30am 16.9 11.2 11.0 68 3.2 NW 32 59 17 32 1013.3 1013.3 16.4
06/05:00am 16.9 11.6 11.4 70 3.0 NW 30 35 16 19 1013.3 1013.3 16.4
06/04:30am 16.9 11.6 11.4 70 3.0 NW 30 39 16 21 1013.4 1013.4 16.4
06/04:00am 16.8 12.1 11.9 73 2.7 NW 28 35 15 19 1013.5 1013.5 16.4
06/03:30am 16.1 12.0 11.3 73 2.6 NW 24 35 13 19 1013.5 1013.5 16.4
06/03:00am 15.5 12.0 13.3 87 1.2 WNW 24 35 13 19 1013.8 1013.8 16.4
06/02:30am 15.8 9.5 13.5 86 1.3 NW 39 52 21 28 1013.7 1013.7 16.2
06/02:23am 16.2 10.3 13.5 84 1.5 NW 37 52 20 28 1013.5 1013.5 16.2
06/02:00am 17.1 12.2 12.4 74 2.6 NNW 30 39 16 21 1013.4 1013.4 16.2
06/01:30am 16.7 11.4 12.5 76 2.3 N 32 43 17 23 1013.7 1013.7 16.2
06/01:00am 15.8 11.0 12.9 83 1.6 NNW 30 39 16 21 1014.1 1014.1 16.2
06/12:49am 15.3 12.2 13.3 88 1.1 N 22 43 12 23 1014.3 1014.3 16.0
06/12:30am 15.1 13.4 13.5 90 0.9 NE 15 20 8 11 1014.7 1014.7 15.0
06/12:00am 15.3 13.6 13.5 89 1.0 NE 15 19 8 10 1014.4 1014.4 14.6
 
Date/Time
WST
Temp
°C
App
Temp
°C
Dew
Point
°C
Rel
Hum
%
Delta-T
°C
Wind Press
QNH
hPa
Press
MSL
hPa
Rain since
9am
mm
Dir  Spd
km/h
Gust
km/h
Spd
kts
Gust
kts
05/11:30pm 16.4 14.8 12.9 80 1.9 NNE 13 20 7 11 1014.6 1014.6 13.8

Other formats

Comma delimited format used in spreadsheet applications
http://www.bom.gov.au/fwo/IDW60801/IDW60801.94605.axf

JavaScript Object Notation format (JSON) in row-major order
http://www.bom.gov.au/fwo/IDW60801/IDW60801.94605.json

Data quality

Most of these data are generated automatically and are frequently updated. Quality checks on data are not normally performed. It is possible for incorrect values to appear. Refer to information at About Latest Weather Observations and please check the disclaimer before using these data.